Time;durP1;ratioP1;P1;durP2;ratioP2;P2;SDS_P1;SDS_P2;PMS_P1;PMS_P2;Temp;Humidity;BMP_temperature;BMP_pressure;BME280_temperature;BME280_humidity;BME280_pressure;Samples;Min_cycle;Max_cycle;Signal;HPM_P1;HPM_P2
2021/03/01 00:01:26;;;;;;;48.90;25.73;;;;;;;5.13;81.60;102890.34;4917579;29;20048;-58
2021/03/01 00:03:53;;;;;;;43.38;23.77;;;;;;;5.11;81.51;102887.03;4917344;29;20103;-54
2021/03/01 00:06:19;;;;;;;43.40;24.20;;;;;;;5.10;81.69;102882.63;4935003;29;20070;-53
2021/03/01 00:08:45;;;;;;;44.90;24.77;;;;;;;5.07;81.50;102886.72;4917632;29;20052;-55
2021/03/01 00:11:11;;;;;;;50.65;26.83;;;;;;;5.04;81.50;102889.97;4934784;29;20071;-58
2021/03/01 00:13:38;;;;;;;47.78;25.27;;;;;;;5.04;81.51;102883.66;4917961;29;20040;-57
2021/03/01 00:16:04;;;;;;;47.10;25.67;;;;;;;5.00;81.40;102886.09;4917763;29;20071;-57
2021/03/01 00:18:31;;;;;;;50.67;28.55;;;;;;;4.94;81.74;102876.13;4935102;29;20067;-56
2021/03/01 00:20:57;;;;;;;44.15;23.55;;;;;;;4.88;81.47;102883.47;4917300;29;20047;-57
2021/03/01 00:23:26;;;;;;;41.40;26.15;;;;;;;4.86;81.79;102873.81;4903755;29;20052;-57
2021/03/01 00:26:06;;;;;;;42.25;25.77;;;;;;;4.84;82.00;102876.81;4916953;29;20040;-58
2021/03/01 00:28:33;;;;;;;54.15;29.15;;;;;;;4.81;81.67;102871.03;4912384;29;20043;-56
2021/03/01 00:30:59;;;;;;;44.05;26.02;;;;;;;4.80;81.80;102867.44;4919345;29;20571;-57
2021/03/01 00:33:25;;;;;;;48.00;27.83;;;;;;;4.80;81.50;102869.34;4934524;29;20051;-59
2021/03/01 00:35:52;;;;;;;42.72;25.63;;;;;;;4.80;81.67;102863.88;4917166;29;20048;-54
2021/03/01 00:38:18;;;;;;;45.25;25.90;;;;;;;4.79;81.29;102864.97;4934496;29;20182;-55
2021/03/01 00:40:44;;;;;;;52.17;27.17;;;;;;;4.76;81.51;102862.72;4916893;29;20051;-55
2021/03/01 00:43:11;;;;;;;50.10;27.90;;;;;;;4.74;81.76;102864.88;4916821;29;20047;-59
2021/03/01 00:45:42;;;;;;;50.05;26.40;;;;;;;4.73;81.81;102868.72;4916596;29;20056;-56
2021/03/01 00:48:29;;;;;;;49.65;27.45;;;;;;;4.74;81.20;102856.63;4879379;29;20045;-55
2021/03/01 00:51:16;;;;;;;51.33;26.30;;;;;;;4.74;81.30;102842.91;4877368;29;20067;-54
2021/03/01 00:53:43;;;;;;;53.92;28.35;;;;;;;4.74;81.27;102848.41;4911646;29;20063;-58
2021/03/01 00:56:09;;;;;;;50.47;30.02;;;;;;;4.73;81.69;102838.53;4934252;29;20834;-56
2021/03/01 00:58:39;;;;;;;53.25;29.88;;;;;;;4.75;81.55;102841.84;4933516;29;20493;-55
2021/03/01 01:01:05;;;;;;;66.28;35.50;;;;;;;4.80;81.62;102852.88;4916502;29;20413;-54
2021/03/01 01:03:32;;;;;;;73.47;40.08;;;;;;;4.81;81.50;102846.31;4934020;29;20054;-56
2021/03/01 01:05:58;;;;;;;59.33;34.15;;;;;;;4.82;82.07;102846.06;4917448;29;20056;-57
2021/03/01 01:08:26;;;;;;;63.95;34.67;;;;;;;4.85;82.36;102852.94;4915649;29;20058;-62
2021/03/01 01:11:10;;;;;;;60.38;29.88;;;;;;;4.86;82.23;102851.88;4932267;29;20052;-55
2021/03/01 01:13:36;;;;;;;58.30;28.42;;;;;;;4.86;82.43;102843.63;4931585;29;20071;-58
2021/03/01 01:16:04;;;;;;;49.70;27.70;;;;;;;4.85;82.50;102841.97;4914964;29;20082;-55
2021/03/01 01:18:33;;;;;;;51.95;27.55;;;;;;;4.85;82.45;102840.06;4914663;29;20055;-53
2021/03/01 01:20:59;;;;;;;41.10;25.55;;;;;;;4.85;82.51;102845.53;4931631;29;20055;-57
2021/03/01 01:23:29;;;;;;;44.30;25.50;;;;;;;4.86;82.58;102835.41;4914433;29;20142;-57
2021/03/01 01:25:55;;;;;;;52.47;25.00;;;;;;;4.81;82.64;102843.56;4915894;29;20048;-53
2021/03/01 01:28:21;;;;;;;46.75;22.83;;;;;;;4.78;83.00;102846.81;4933911;29;20036;-57
2021/03/01 01:30:49;;;;;;;45.78;23.00;;;;;;;4.79;82.80;102838.31;4915630;29;20406;-56
2021/03/01 01:33:15;;;;;;;42.70;22.05;;;;;;;4.76;82.91;102843.53;4916476;29;20059;-54
2021/03/01 01:35:44;;;;;;;35.00;20.45;;;;;;;4.75;82.85;102828.97;4934123;29;20040;-56
2021/03/01 01:38:11;;;;;;;46.00;22.00;;;;;;;4.73;83.10;102824.81;4932981;29;20043;-58
2021/03/01 01:40:38;;;;;;;44.08;24.20;;;;;;;4.75;83.02;102828.13;4915820;29;20052;-57
2021/03/01 01:43:05;;;;;;;42.03;21.90;;;;;;;4.74;83.35;102827.28;4930531;29;20047;-56
2021/03/01 01:45:31;;;;;;;37.20;21.85;;;;;;;4.72;83.02;102834.13;4932252;29;20426;-58
2021/03/01 01:48:05;;;;;;;38.30;20.10;;;;;;;4.72;83.22;102828.63;4933299;29;20123;-54
2021/03/01 01:50:31;;;;;;;39.75;22.08;;;;;;;4.69;82.96;102829.13;4933232;29;20044;-57
2021/03/01 01:52:58;;;;;;;40.55;21.38;;;;;;;4.67;83.35;102806.63;4932569;29;20474;-56
2021/03/01 01:55:28;;;;;;;39.63;21.58;;;;;;;4.65;82.91;102811.53;4915427;29;20055;-52
2021/03/01 01:57:54;;;;;;;44.45;22.67;;;;;;;4.64;83.19;102810.72;4916234;29;20053;-54
2021/03/01 02:00:47;;;;;;;45.95;22.50;;;;;;;4.65;82.92;102811.53;4932678;29;20058;-56
2021/03/01 02:03:25;;;;;;;57.80;28.13;;;;;;;4.65;83.03;102806.06;4932917;29;20040;-54
2021/03/01 02:05:55;;;;;;;40.67;21.70;;;;;;;4.64;83.39;102805.22;4933538;29;20057;-56
2021/03/01 02:08:31;;;;;;;52.65;25.13;;;;;;;4.62;83.54;102801.91;4901336;29;20143;-54
2021/03/01 02:11:10;;;;;;;46.38;24.92;;;;;;;4.58;83.16;102795.25;4915911;29;20052;-56
2021/03/01 02:13:48;;;;;;;42.40;23.10;;;;;;;4.57;83.34;102798.28;4915305;29;20055;-52
2021/03/01 02:16:20;;;;;;;45.70;25.35;;;;;;;4.51;83.10;102799.28;4914867;29;20068;-55
2021/03/01 02:18:48;;;;;;;38.95;22.20;;;;;;;4.51;83.56;102802.03;4911864;29;20055;-55
2021/03/01 02:21:15;;;;;;;40.15;21.25;;;;;;;4.50;83.32;102786.69;4932961;29;20490;-54
2021/03/01 02:23:42;;;;;;;39.97;20.90;;;;;;;4.45;83.52;102792.09;4931751;29;20126;-53
2021/03/01 02:26:26;;;;;;;43.63;23.20;;;;;;;4.40;83.57;102775.53;4933143;29;20107;-55
2021/03/01 02:29:04;;;;;;;46.15;23.42;;;;;;;4.39;83.61;102782.13;4915690;29;20058;-54
2021/03/01 02:31:57;;;;;;;43.28;23.27;;;;;;;4.40;83.40;102781.03;4933136;29;20054;-53
2021/03/01 02:34:30;;;;;;;48.13;25.73;;;;;;;4.44;83.30;102783.03;4935623;29;20043;-51
2021/03/01 02:37:00;;;;;;;44.38;22.15;;;;;;;4.45;83.47;102768.22;4936188;29;20413;-57
2021/03/01 02:39:29;;;;;;;44.72;23.67;;;;;;;4.47;83.65;102765.25;4936879;29;20828;-55
2021/03/01 02:41:56;;;;;;;48.38;23.05;;;;;;;4.51;83.67;102771.84;4919165;29;20040;-52
2021/03/01 02:44:24;;;;;;;42.67;22.40;;;;;;;4.51;83.42;102760.88;4936459;29;20509;-53
2021/03/01 02:46:52;;;;;;;38.40;21.00;;;;;;;4.49;83.60;102758.41;4916592;29;20127;-51
2021/03/01 02:49:18;;;;;;;46.95;25.13;;;;;;;4.49;83.69;102760.31;4916100;29;20059;-52
2021/03/01 02:51:48;;;;;;;42.00;21.98;;;;;;;4.47;83.85;102752.34;4932302;29;20569;-53
2021/03/01 02:54:17;;;;;;;47.13;22.48;;;;;;;4.49;84.02;102752.09;4911746;29;20079;-53
2021/03/01 02:56:49;;;;;;;40.25;20.17;;;;;;;4.47;83.74;102748.78;4935232;29;20050;-53
2021/03/01 02:59:24;;;;;;;36.42;21.15;;;;;;;4.47;83.93;102746.03;4936810;29;20087;-54
2021/03/01 03:01:50;;;;;;;35.67;18.60;;;;;;;4.49;84.23;102749.34;4917828;29;20044;-49
2021/03/01 03:04:20;;;;;;;41.65;19.50;;;;;;;4.47;83.91;102749.63;4919035;29;20070;-55
2021/03/01 03:06:48;;;;;;;33.53;15.82;;;;;;;4.47;83.95;102743.28;4916346;29;20045;-48
2021/03/01 03:09:15;;;;;;;37.45;15.55;;;;;;;4.45;84.34;102745.47;4933813;29;20052;-51
2021/03/01 03:11:43;;;;;;;33.38;17.35;;;;;;;4.44;84.20;102739.16;4935593;29;20043;-54
2021/03/01 03:14:18;;;;;;;34.75;15.43;;;;;;;4.45;84.36;102746.28;4902638;29;20126;-49
2021/03/01 03:16:48;;;;;;;34.65;14.00;;;;;;;4.47;84.87;102737.81;4935619;29;20491;-51
2021/03/01 03:19:15;;;;;;;39.47;15.73;;;;;;;4.47;84.78;102740.56;4919135;29;20052;-53
2021/03/01 03:21:44;;;;;;;28.58;14.10;;;;;;;4.47;84.55;102743.28;4919341;29;20078;-53
2021/03/01 03:24:11;;;;;;;40.25;15.95;;;;;;;4.49;85.30;102735.63;4930636;29;20055;-55
2021/03/01 03:26:41;;;;;;;30.13;13.88;;;;;;;4.50;85.36;102731.81;4918261;29;20554;-51
2021/03/01 03:29:07;;;;;;;35.08;13.65;;;;;;;4.51;85.61;102741.69;4926896;29;20048;-53
2021/03/01 03:31:35;;;;;;;23.30;13.90;;;;;;;4.49;85.12;102730.16;4918409;29;20055;-53
2021/03/01 03:34:03;;;;;;;26.17;12.20;;;;;;;4.47;85.42;102735.06;4935753;29;20489;-56
2021/03/01 03:36:35;;;;;;;27.90;11.32;;;;;;;4.49;85.54;102730.97;4935267;29;20050;-52
2021/03/01 03:39:07;;;;;;;22.73;10.27;;;;;;;4.50;85.42;102732.63;4934873;29;20048;-52
2021/03/01 03:41:35;;;;;;;19.52;8.48;;;;;;;4.47;85.60;102726.84;4935276;29;20079;-53
2021/03/01 03:44:04;;;;;;;19.90;8.32;;;;;;;4.50;85.97;102720.84;4918622;29;20458;-54
2021/03/01 03:46:32;;;;;;;22.58;9.02;;;;;;;4.51;85.72;102722.47;4935705;29;20079;-54
2021/03/01 03:48:59;;;;;;;17.67;7.13;;;;;;;4.51;86.16;102722.47;4934983;29;20103;-52
2021/03/01 03:51:29;;;;;;;18.92;8.32;;;;;;;4.49;85.87;102719.19;4935271;29;20108;-54
2021/03/01 03:54:16;;;;;;;16.95;8.50;;;;;;;4.48;86.07;102714.75;4934960;29;20185;-54
2021/03/01 03:56:51;;;;;;;19.17;7.50;;;;;;;4.48;85.76;102723.00;4935382;29;20071;-55
2021/03/01 03:59:21;;;;;;;21.13;8.07;;;;;;;4.47;85.79;102726.84;4935347;29;20055;-53
2021/03/01 04:01:51;;;;;;;19.63;8.60;;;;;;;4.46;85.91;102719.69;4935161;29;20516;-55
2021/03/01 04:04:20;;;;;;;16.95;6.95;;;;;;;4.46;85.82;102716.94;4924749;29;20466;-52
2021/03/01 04:06:47;;;;;;;21.15;8.43;;;;;;;4.47;86.08;102715.88;4918304;29;20478;-54
2021/03/01 04:09:15;;;;;;;18.23;7.85;;;;;;;4.42;85.78;102718.56;4933521;29;20130;-55
2021/03/01 04:11:46;;;;;;;19.10;9.02;;;;;;;4.40;86.03;102712.47;4933409;29;20498;-52
2021/03/01 04:14:19;;;;;;;15.60;8.15;;;;;;;4.38;86.22;102723.72;4935382;29;20510;-48
2021/03/01 04:16:50;;;;;;;18.20;8.00;;;;;;;4.37;85.89;102715.75;4934985;29;20481;-54
2021/03/01 04:19:18;;;;;;;18.25;8.07;;;;;;;4.36;85.88;102714.09;4934545;29;20051;-51
2021/03/01 04:21:46;;;;;;;23.73;9.32;;;;;;;4.35;86.10;102712.41;4934862;29;20043;-51
2021/03/01 04:24:15;;;;;;;16.98;7.18;;;;;;;4.31;86.15;102707.44;4934190;29;20134;-49
2021/03/01 04:26:43;;;;;;;17.45;8.70;;;;;;;4.31;86.08;102704.69;4935108;29;20401;-55
2021/03/01 04:29:10;;;;;;;24.30;9.75;;;;;;;4.31;85.98;102712.13;4932822;29;20455;-53
2021/03/01 04:31:37;;;;;;;14.93;7.45;;;;;;;4.29;85.91;102703.31;4928628;29;20136;-51
2021/03/01 04:34:05;;;;;;;16.50;7.82;;;;;;;4.30;86.36;102705.81;4934381;29;20051;-48
2021/03/01 04:36:33;;;;;;;20.48;8.20;;;;;;;4.28;86.42;102707.16;4933963;29;20412;-54
2021/03/01 04:39:00;;;;;;;18.63;8.40;;;;;;;4.30;86.63;102711.28;4934541;29;20137;-53
2021/03/01 04:41:27;;;;;;;19.35;7.95;;;;;;;4.36;86.91;102716.81;4929097;29;20048;-54
2021/03/01 04:43:55;;;;;;;23.65;8.15;;;;;;;4.37;86.26;102710.28;4923276;29;20071;-53
2021/03/01 04:46:22;;;;;;;16.98;8.15;;;;;;;4.40;86.85;102717.97;4934450;29;20052;-53
2021/03/01 04:48:51;;;;;;;17.80;8.00;;;;;;;4.42;86.75;102724.03;4934559;29;20446;-55
2021/03/01 04:51:19;;;;;;;19.63;7.45;;;;;;;4.43;86.51;102725.69;4934256;29;20052;-54
2021/03/01 04:53:46;;;;;;;19.58;8.68;;;;;;;4.42;86.75;102704.84;4934141;29;20043;-51
2021/03/01 04:56:12;;;;;;;23.70;8.73;;;;;;;4.41;87.15;102711.41;4932340;29;20079;-55
2021/03/01 04:58:42;;;;;;;18.25;8.40;;;;;;;4.41;87.01;102705.91;4934828;29;20047;-53
2021/03/01 05:01:09;;;;;;;14.35;6.78;;;;;;;4.42;87.09;102707.59;4933873;29;20556;-53
2021/03/01 05:03:38;;;;;;;24.73;8.40;;;;;;;4.41;87.14;102706.75;4927925;29;20546;-51
2021/03/01 05:06:05;;;;;;;18.10;7.70;;;;;;;4.43;87.07;102704.56;4927288;29;20418;-54
2021/03/01 05:08:33;;;;;;;17.25;7.88;;;;;;;4.43;86.90;102703.75;4933128;29;20127;-55
2021/03/01 05:11:03;;;;;;;21.48;7.80;;;;;;;4.43;87.38;102704.56;4934458;29;20091;-51
2021/03/01 05:13:30;;;;;;;15.43;7.55;;;;;;;4.45;87.49;102701.59;4933388;29;20134;-56
2021/03/01 05:15:56;;;;;;;20.15;8.20;;;;;;;4.45;87.47;102696.13;4934565;29;20083;-55
2021/03/01 05:18:22;;;;;;;26.65;8.50;;;;;;;4.45;87.51;102704.34;4934540;29;20122;-53
2021/03/01 05:20:48;;;;;;;17.95;8.07;;;;;;;4.47;87.69;102704.91;4933999;29;20521;-56
2021/03/01 05:23:15;;;;;;;17.70;7.47;;;;;;;4.45;87.56;102704.34;4933679;29;20844;-53
2021/03/01 05:25:41;;;;;;;19.00;8.52;;;;;;;4.45;87.70;102693.38;4933712;29;20079;-56
2021/03/01 05:28:09;;;;;;;13.60;6.63;;;;;;;4.44;87.64;102688.97;4933860;29;20056;-55
2021/03/01 05:30:38;;;;;;;19.67;8.50;;;;;;;4.46;87.81;102697.75;4916816;29;20091;-53
2021/03/01 05:33:05;;;;;;;19.20;7.60;;;;;;;4.46;88.00;102695.84;4933835;29;20039;-55
2021/03/01 05:35:32;;;;;;;23.52;7.90;;;;;;;4.49;87.98;102697.25;4933653;29;20430;-54
2021/03/01 05:37:59;;;;;;;17.52;7.70;;;;;;;4.51;88.33;102693.16;4933518;29;20130;-54
2021/03/01 05:40:28;;;;;;;19.15;8.20;;;;;;;4.55;88.11;102698.97;4933631;29;20051;-56
2021/03/01 05:42:56;;;;;;;24.70;9.68;;;;;;;4.58;88.44;102695.72;4926265;29;20068;-55
2021/03/01 05:45:23;;;;;;;21.52;8.93;;;;;;;4.61;88.65;102696.00;4916858;29;20058;-57
2021/03/01 05:47:50;;;;;;;17.35;8.10;;;;;;;4.63;88.36;102698.50;4933293;29;20048;-57
2021/03/01 05:50:18;;;;;;;23.75;9.05;;;;;;;4.63;88.22;102693.00;4916112;29;20048;-58
2021/03/01 05:52:52;;;;;;;26.70;9.20;;;;;;;4.61;88.26;102689.69;4932790;29;20147;-60
2021/03/01 05:55:22;;;;;;;19.40;7.15;;;;;;;4.59;88.55;102697.34;4920775;29;20087;-57
2021/03/01 05:57:48;;;;;;;18.42;7.28;;;;;;;4.60;88.36;102690.78;4933566;29;20122;-57
2021/03/01 06:00:15;;;;;;;19.20;6.60;;;;;;;4.61;88.65;102684.19;4933077;29;20131;-58
2021/03/01 06:02:45;;;;;;;16.13;6.97;;;;;;;4.59;88.56;102683.63;4932723;29;20123;-56
2021/03/01 06:05:13;;;;;;;13.43;6.70;;;;;;;4.59;88.29;102681.72;4916785;29;20510;-58
2021/03/01 06:07:40;;;;;;;19.77;7.50;;;;;;;4.61;88.31;102674.06;4932632;29;20139;-58
2021/03/01 06:10:07;;;;;;;18.98;6.47;;;;;;;4.61;88.29;102674.06;4937678;29;20122;-56
2021/03/01 06:12:33;;;;;;;18.13;6.38;;;;;;;4.60;88.37;102671.59;4919922;29;20036;-56
2021/03/01 06:15:02;;;;;;;20.38;7.95;;;;;;;4.56;88.24;102665.78;4937257;29;20102;-57
2021/03/01 06:17:28;;;;;;;16.75;7.70;;;;;;;4.51;88.43;102670.38;4936443;29;20134;-57
2021/03/01 06:19:56;;;;;;;15.63;6.45;;;;;;;4.52;88.32;102667.38;4936272;29;20151;-55
2021/03/01 06:22:44;;;;;;;14.40;7.05;;;;;;;4.46;88.35;102675.81;4936447;29;20428;-58
2021/03/01 06:25:13;;;;;;;19.85;7.75;;;;;;;4.50;88.33;102671.47;4918266;29;20050;-57
2021/03/01 06:27:57;;;;;;;23.70;7.90;;;;;;;4.52;88.48;102672.88;4931934;29;20040;-56
2021/03/01 06:30:26;;;;;;;23.13;9.02;;;;;;;4.60;88.63;102666.09;4929222;29;20151;-55
2021/03/01 06:33:15;;;;;;;28.58;9.18;;;;;;;4.64;89.00;102669.97;4936751;29;20135;-55
2021/03/01 06:35:57;;;;;;;25.08;8.02;;;;;;;4.71;89.45;102667.88;4920851;29;20178;-58
2021/03/01 06:38:34;;;;;;;29.92;10.73;;;;;;;4.79;89.14;102670.13;4935927;29;20074;-58
2021/03/01 06:41:19;;;;;;;23.20;8.88;;;;;;;4.83;89.21;102676.75;4936285;29;20118;-57
2021/03/01 06:43:53;;;;;;;26.40;11.33;;;;;;;4.89;89.62;102670.22;4937567;29;20071;-56
2021/03/01 06:46:21;;;;;;;28.25;11.98;;;;;;;4.94;89.19;102667.53;4935514;29;20389;-57
2021/03/01 06:48:47;;;;;;;25.77;11.70;;;;;;;4.96;89.24;102670.84;4937057;29;20131;-55
2021/03/01 06:51:14;;;;;;;32.08;12.13;;;;;;;4.99;89.26;102664.81;4936096;29;20095;-58
2021/03/01 06:53:40;;;;;;;34.30;13.38;;;;;;;5.02;89.41;102664.31;4936346;29;20135;-55
2021/03/01 06:56:11;;;;;;;42.45;15.43;;;;;;;5.04;89.71;102662.13;4935724;29;20178;-55
2021/03/01 06:58:47;;;;;;;39.95;16.25;;;;;;;5.06;89.51;102664.59;4936375;29;20040;-53
2021/03/01 07:01:14;;;;;;;47.17;16.25;;;;;;;5.09;89.57;102669.56;4934963;29;20048;-58
2021/03/01 07:03:44;;;;;;;29.25;14.13;;;;;;;5.10;89.55;102672.06;4936393;29;20066;-55
2021/03/01 07:06:13;;;;;;;44.28;16.95;;;;;;;5.13;89.82;102671.53;4935888;29;20142;-56
2021/03/01 07:08:52;;;;;;;34.72;15.38;;;;;;;5.14;89.64;102673.19;4935565;29;20696;-53
2021/03/01 07:11:30;;;;;;;36.45;16.05;;;;;;;5.14;89.61;102672.34;4933259;29;20592;-57
2021/03/01 07:14:21;;;;;;;39.20;17.25;;;;;;;5.14;89.68;102675.09;4936286;29;20071;-54
2021/03/01 07:16:51;;;;;;;42.33;19.05;;;;;;;5.16;89.59;102676.53;4935178;29;20036;-54
2021/03/01 07:19:23;;;;;;;45.13;18.88;;;;;;;5.18;90.01;102679.81;4918573;29;20111;-54
2021/03/01 07:21:53;;;;;;;43.90;18.50;;;;;;;5.20;89.88;102676.81;4911513;29;20043;-60
2021/03/01 07:24:22;;;;;;;44.28;18.50;;;;;;;5.22;89.80;102680.09;4924383;29;20562;-56
2021/03/01 07:26:50;;;;;;;51.65;22.35;;;;;;;5.23;89.72;102677.13;4922928;29;20111;-56
2021/03/01 07:29:18;;;;;;;48.17;23.10;;;;;;;5.26;90.02;102682.09;4933393;29;20067;-54
2021/03/01 07:31:56;;;;;;;53.95;25.10;;;;;;;5.30;90.25;102683.19;4930913;29;20071;-57
2021/03/01 07:34:24;;;;;;;53.85;24.85;;;;;;;5.35;89.92;102679.66;4930352;29;20043;-55
2021/03/01 07:36:53;;;;;;;51.90;25.00;;;;;;;5.39;90.00;102689.03;4927514;29;20090;-57
2021/03/01 07:39:20;;;;;;;51.20;22.85;;;;;;;5.42;89.96;102685.78;4915281;29;20051;-55
2021/03/01 07:41:47;;;;;;;46.22;22.48;;;;;;;5.47;90.32;102689.38;4914054;29;20135;-57
2021/03/01 07:44:14;;;;;;;53.13;22.90;;;;;;;5.51;90.13;102690.50;4933249;29;20106;-57
2021/03/01 07:46:45;;;;;;;49.88;23.35;;;;;;;5.55;90.35;102690.81;4933374;29;20050;-58
2021/03/01 07:49:14;;;;;;;50.67;23.95;;;;;;;5.59;90.26;102691.91;4932704;29;20051;-58
2021/03/01 07:51:49;;;;;;;51.05;25.52;;;;;;;5.62;90.72;102690.56;4931157;29;20577;-56
2021/03/01 07:54:18;;;;;;;60.00;25.30;;;;;;;5.64;90.18;102689.22;4933564;29;20051;-58
2021/03/01 07:56:47;;;;;;;59.63;27.67;;;;;;;5.66;90.43;102684.28;4932646;29;20119;-59
2021/03/01 07:59:21;;;;;;;58.17;25.63;;;;;;;5.69;90.82;102682.94;4931534;29;20150;-56
2021/03/01 08:02:07;;;;;;;67.93;29.45;;;;;;;5.71;90.65;102683.50;4930903;29;20120;-57
2021/03/01 08:04:34;;;;;;;72.57;33.38;;;;;;;5.75;90.47;102685.44;4933204;29;20047;-56
2021/03/01 08:07:02;;;;;;;68.97;33.42;;;;;;;5.79;90.43;102683.81;4925188;29;20047;-59
2021/03/01 08:09:49;;;;;;;66.05;32.78;;;;;;;5.83;90.33;102682.19;4926437;29;20059;-58
2021/03/01 08:12:27;;;;;;;65.93;30.60;;;;;;;5.89;90.26;102685.81;4930607;29;20123;-57
2021/03/01 08:14:53;;;;;;;67.47;31.70;;;;;;;5.91;90.45;102678.13;4931947;29;20043;-59
2021/03/01 08:17:26;;;;;;;66.15;32.17;;;;;;;5.94;90.26;102669.34;4926441;29;20051;-59
2021/03/01 08:20:24;;;;;;;68.32;34.55;;;;;;;5.95;90.56;102679.28;4925971;29;20043;-57
2021/03/01 08:23:12;;;;;;;72.60;36.05;;;;;;;6.00;90.52;102676.53;4916596;29;20087;-55
2021/03/01 08:25:41;;;;;;;76.78;34.50;;;;;;;6.03;90.34;102670.50;4926317;29;20055;-56
2021/03/01 08:28:17;;;;;;;86.93;38.38;;;;;;;6.07;90.21;102666.13;4930600;29;20051;-59
2021/03/01 08:30:45;;;;;;;85.57;39.85;;;;;;;6.12;90.22;102679.88;4929108;29;20063;-57
2021/03/01 08:33:13;;;;;;;90.70;40.45;;;;;;;6.16;90.29;102677.44;4929434;29;20039;-57
2021/03/01 08:35:46;;;;;;;90.88;40.72;;;;;;;6.18;90.36;102673.31;4927469;29;20041;-58
2021/03/01 08:38:14;;;;;;;99.60;45.67;;;;;;;6.21;90.39;102677.44;4929311;29;20495;-58
2021/03/01 08:40:54;;;;;;;91.18;40.80;;;;;;;6.23;90.37;102676.09;4931764;29;20134;-59
2021/03/01 08:43:35;;;;;;;92.55;43.33;;;;;;;6.25;90.17;102667.59;4923740;29;20106;-59
2021/03/01 08:46:08;;;;;;;93.80;43.33;;;;;;;6.28;90.22;102672.53;4926847;29;20054;-58
2021/03/01 08:48:45;;;;;;;99.18;46.63;;;;;;;6.30;89.91;102675.84;4930860;29;20443;-59
2021/03/01 08:51:12;;;;;;;99.45;46.17;;;;;;;6.32;90.22;102662.66;4914456;29;20061;-56
2021/03/01 08:53:39;;;;;;;94.28;44.88;;;;;;;6.35;89.92;102670.38;4931645;29;20051;-61
2021/03/01 08:56:20;;;;;;;99.88;44.97;;;;;;;6.39;89.68;102675.03;4931285;29;20127;-59
2021/03/01 08:58:47;;;;;;;116.78;50.58;;;;;;;6.44;89.81;102677.81;4931897;29;20134;-54
2021/03/01 09:01:13;;;;;;;101.13;47.92;;;;;;;6.48;89.82;102667.09;4926029;29;20076;-57
2021/03/01 09:03:45;;;;;;;115.70;50.45;;;;;;;6.54;89.75;102666.03;4925586;29;20067;-57
2021/03/01 09:06:15;;;;;;;106.72;50.47;;;;;;;6.61;89.83;102658.31;4929572;29;20059;-55
2021/03/01 09:08:49;;;;;;;102.43;48.53;;;;;;;6.71;89.76;102661.09;4930140;29;20513;-57
2021/03/01 09:11:16;;;;;;;98.63;46.95;;;;;;;6.80;89.71;102666.88;4927632;29;20056;-57
2021/03/01 09:13:48;;;;;;;105.50;45.55;;;;;;;6.89;89.62;102663.31;4931012;29;20094;-59
2021/03/01 09:16:24;;;;;;;110.07;47.92;;;;;;;6.95;89.57;102664.16;4926492;29;20122;-57
2021/03/01 09:18:52;;;;;;;99.68;45.17;;;;;;;7.00;89.33;102664.16;4920493;29;20048;-56
2021/03/01 09:21:20;;;;;;;101.03;48.67;;;;;;;7.04;89.44;102657.00;4924997;29;20066;-56
2021/03/01 09:23:50;;;;;;;110.07;49.25;;;;;;;7.08;89.29;102649.84;4903224;29;20150;-58
2021/03/01 09:26:27;;;;;;;106.20;46.13;;;;;;;7.14;89.48;102651.50;4929386;29;20047;-56
2021/03/01 09:28:59;;;;;;;103.30;47.47;;;;;;;7.18;89.28;102650.66;4926798;29;20062;-59
2021/03/01 09:31:29;;;;;;;100.53;47.28;;;;;;;7.22;89.17;102653.69;4922235;29;20133;-58
2021/03/01 09:33:56;;;;;;;92.93;49.30;;;;;;;7.23;88.95;102647.06;4930101;29;20043;-59
2021/03/01 09:36:28;;;;;;;106.28;48.63;;;;;;;7.27;89.06;102645.44;4911240;29;20101;-61
2021/03/01 09:38:54;;;;;;;103.10;46.95;;;;;;;7.30;88.72;102637.44;4930714;29;20071;-57
2021/03/01 09:41:34;;;;;;;98.63;47.15;;;;;;;7.35;88.55;102650.38;4928830;29;20047;-56
2021/03/01 09:44:01;;;;;;;92.10;43.78;;;;;;;7.43;88.57;102651.75;4932002;29;20083;-58
2021/03/01 09:46:28;;;;;;;88.03;46.58;;;;;;;7.49;88.56;102640.44;4933057;29;20044;-58
2021/03/01 09:49:02;;;;;;;89.13;43.17;;;;;;;7.57;88.32;102648.13;4934128;29;20083;-58
2021/03/01 09:51:30;;;;;;;93.25;46.70;;;;;;;7.64;88.25;102640.41;4934184;29;20044;-56
2021/03/01 09:54:05;;;;;;;88.63;44.40;;;;;;;7.66;87.84;102649.22;4934247;29;20073;-57
2021/03/01 09:56:43;;;;;;;85.22;42.78;;;;;;;7.66;87.62;102643.69;4935451;29;20543;-60
2021/03/01 09:59:10;;;;;;;84.20;42.35;;;;;;;7.62;87.38;102645.38;4935611;29;20463;-58
2021/03/01 10:01:37;;;;;;;84.13;40.08;;;;;;;7.58;87.17;102637.91;4935881;29;20079;-54
2021/03/01 10:04:04;;;;;;;88.45;37.88;;;;;;;7.57;87.17;102637.09;4931550;29;20053;-56
2021/03/01 10:06:38;;;;;;;92.22;43.60;;;;;;;7.57;87.24;102636.28;4935539;29;20122;-55
2021/03/01 10:09:11;;;;;;;77.97;41.00;;;;;;;7.58;87.08;102624.97;4934818;29;20123;-53
2021/03/01 10:11:38;;;;;;;73.35;41.20;;;;;;;7.66;87.11;102627.16;4934739;29;20050;-56
2021/03/01 10:14:11;;;;;;;81.63;38.78;;;;;;;7.70;87.10;102622.75;4927890;29;20146;-59
2021/03/01 10:16:39;;;;;;;73.57;38.15;;;;;;;7.79;86.94;102623.81;4914510;29;20431;-56
2021/03/01 10:19:17;;;;;;;80.80;39.28;;;;;;;7.83;86.43;102630.44;4934243;29;20063;-59
2021/03/01 10:21:44;;;;;;;69.90;36.10;;;;;;;7.83;86.55;102618.56;4927561;29;20145;-57
2021/03/01 10:24:12;;;;;;;71.15;36.78;;;;;;;7.82;86.35;102614.16;4931303;29;20071;-56
2021/03/01 10:27:00;;;;;;;80.03;40.40;;;;;;;7.85;85.96;102617.19;4931288;29;20050;-58
2021/03/01 10:29:34;;;;;;;99.75;37.95;;;;;;;7.88;85.64;102611.09;4933059;29;20075;-57
2021/03/01 10:32:03;;;;;;;70.97;36.28;;;;;;;7.96;85.98;102624.31;4932481;29;20400;-59
2021/03/01 10:34:35;;;;;;;72.10;38.05;;;;;;;8.03;85.95;102621.22;4932721;29;20553;-57
2021/03/01 10:37:04;;;;;;;76.25;38.38;;;;;;;8.07;85.73;102616.81;4934198;29;20058;-58
2021/03/01 10:39:42;;;;;;;76.95;36.58;;;;;;;8.10;85.47;102618.19;4934195;29;20493;-58
2021/03/01 10:42:13;;;;;;;67.80;34.58;;;;;;;8.10;85.54;102618.19;4933633;29;20046;-57
2021/03/01 10:44:43;;;;;;;79.90;39.67;;;;;;;8.15;85.12;102631.94;4934410;29;20390;-60
2021/03/01 10:47:18;;;;;;;70.55;35.22;;;;;;;8.23;84.57;102634.13;4934144;29;20087;-56
2021/03/01 10:49:49;;;;;;;65.20;32.50;;;;;;;8.26;84.66;102628.03;4934362;29;20052;-57
2021/03/01 10:52:17;;;;;;;62.88;33.58;;;;;;;8.26;84.79;102634.34;4933608;29;20517;-56
2021/03/01 10:54:48;;;;;;;52.50;29.92;;;;;;;8.18;84.11;102628.63;4930594;29;20040;-58
2021/03/01 10:57:14;;;;;;;56.70;30.75;;;;;;;8.10;83.93;102629.22;4933550;29;20410;-56
2021/03/01 10:59:40;;;;;;;62.80;31.92;;;;;;;8.07;83.91;102618.75;4934122;29;20097;-57
2021/03/01 11:02:09;;;;;;;65.20;32.60;;;;;;;7.99;83.79;102611.88;4934223;29;20858;-54
2021/03/01 11:04:37;;;;;;;60.30;32.33;;;;;;;7.95;83.74;102622.66;4933206;29;20051;-56
2021/03/01 11:07:03;;;;;;;61.63;33.65;;;;;;;7.96;83.74;102607.75;4917590;29;20055;-58
2021/03/01 11:09:30;;;;;;;59.78;34.17;;;;;;;7.95;83.50;102616.31;4933889;29;20103;-56
2021/03/01 11:11:56;;;;;;;69.35;35.72;;;;;;;7.96;83.44;102615.22;4933963;29;20130;-56
2021/03/01 11:14:23;;;;;;;62.63;34.20;;;;;;;7.90;83.20;102614.41;4932653;29;20059;-57
2021/03/01 11:16:49;;;;;;;64.47;33.05;;;;;;;7.83;83.10;102624.09;4915853;29;20075;-58
2021/03/01 11:19:16;;;;;;;63.65;34.33;;;;;;;7.86;83.15;102627.09;4933184;29;20150;-55
2021/03/01 11:21:43;;;;;;;66.47;36.92;;;;;;;7.96;83.23;102624.31;4933586;29;20048;-55
2021/03/01 11:24:10;;;;;;;62.25;33.30;;;;;;;8.05;83.08;102637.53;4933570;29;20605;-54
2021/03/01 11:26:38;;;;;;;60.67;31.88;;;;;;;8.18;82.97;102636.91;4932348;29;20094;-55
2021/03/01 11:29:06;;;;;;;64.40;31.48;;;;;;;8.28;83.01;102640.47;4930437;29;20048;-53
2021/03/01 11:31:33;;;;;;;63.38;32.15;;;;;;;8.27;82.29;102643.50;4932527;29;20493;-53
2021/03/01 11:34:01;;;;;;;56.60;32.50;;;;;;;8.26;82.23;102639.88;4930681;29;20490;-58